createdAt,value
2022-12-04T00:01:51.456Z,98328.80
2022-12-04T00:04:28.346Z,98327.41
2022-12-04T00:07:04.369Z,98326.58
2022-12-04T00:09:39.045Z,98323.45
2022-12-04T00:12:15.736Z,98317.85
2022-12-04T00:15:23.929Z,98321.07
2022-12-04T00:17:50.830Z,98323.30
2022-12-04T00:20:25.342Z,98329.33
2022-12-04T00:23:01.968Z,98332.58
2022-12-04T00:25:41.382Z,98332.17
2022-12-04T00:28:15.952Z,98329.65
2022-12-04T00:30:50.839Z,98328.63
2022-12-04T00:33:24.801Z,98322.98
2022-12-04T00:36:09.161Z,98320.09
2022-12-04T00:38:43.405Z,98318.55
2022-12-04T00:41:20.426Z,98316.87
2022-12-04T00:43:54.851Z,98317.52
2022-12-04T00:46:29.083Z,98319.22
2022-12-04T00:49:03.514Z,98316.52
2022-12-04T00:51:37.994Z,98311.77
2022-12-04T00:54:12.190Z,98317.02
2022-12-04T00:56:46.225Z,98313.42
2022-12-04T00:59:22.617Z,98304.41
2022-12-04T01:01:56.885Z,98293.90
2022-12-04T01:04:30.983Z,98295.01
2022-12-04T01:07:05.523Z,98296.31
2022-12-04T01:09:40.036Z,98296.52
2022-12-04T01:12:14.916Z,98295.61
2022-12-04T01:14:52.061Z,98294.80
2022-12-04T01:17:26.282Z,98290.62
2022-12-04T01:20:01.677Z,98290.11
2022-12-04T01:22:37.330Z,98286.36
2022-12-04T01:25:21.448Z,98282.80
2022-12-04T01:27:57.594Z,98279.23
2022-12-04T01:30:33.448Z,98274.78
2022-12-04T01:33:09.974Z,98272.23
2022-12-04T01:35:54.079Z,98268.60
2022-12-04T01:38:26.966Z,98267.63
2022-12-04T01:41:01.491Z,98269.55
2022-12-04T01:43:38.088Z,98270.77
2022-12-04T01:46:13.219Z,98269.56
2022-12-04T01:48:52.987Z,98265.73
2022-12-04T01:51:32.221Z,98259.05
2022-12-04T01:54:11.071Z,98258.55
2022-12-04T01:56:49.102Z,98261.14
2022-12-04T01:59:28.901Z,98267.96
2022-12-04T02:02:09.739Z,98266.69
2022-12-04T02:04:45.125Z,98264.67
2022-12-04T02:07:19.010Z,98258.88
2022-12-04T02:09:56.550Z,98255.80
2022-12-04T02:12:35.815Z,98250.71
2022-12-04T02:15:18.508Z,98250.27
2022-12-04T02:18:11.925Z,98248.05
2022-12-04T02:20:55.401Z,98252.62
2022-12-04T02:23:47.643Z,98248.34
2022-12-04T02:26:44.321Z,98246.69
2022-12-04T02:29:26.563Z,98250.04
2022-12-04T02:32:08.308Z,98249.67
2022-12-04T02:34:47.814Z,98256.48
2022-12-04T02:37:26.353Z,98256.52
2022-12-04T02:40:04.780Z,98245.60
2022-12-04T02:42:44.698Z,98239.36
2022-12-04T02:45:22.568Z,98236.82
2022-12-04T02:47:57.626Z,98244.14
2022-12-04T02:50:33.129Z,98251.58
2022-12-04T02:53:11.422Z,98268.63
2022-12-04T02:55:49.450Z,98277.67
2022-12-04T02:58:28.182Z,98280.61
2022-12-04T03:01:05.598Z,98280.73
2022-12-04T03:03:40.748Z,98278.58
2022-12-04T03:06:17.993Z,98281.81
2022-12-04T03:08:56.422Z,98279.16
2022-12-04T03:11:33.760Z,98280.14
2022-12-04T03:14:14.754Z,98288.80
2022-12-04T03:16:50.758Z,98290.98
2022-12-04T03:19:30.667Z,98289.02
2022-12-04T03:22:07.556Z,98292.10
2022-12-04T03:24:45.632Z,98290.70
2022-12-04T03:27:26.337Z,98291.30
2022-12-04T03:30:06.023Z,98295.14
2022-12-04T03:32:46.707Z,98295.59
2022-12-04T03:35:25.403Z,98296.41
2022-12-04T03:38:05.477Z,98297.45
2022-12-04T03:40:45.184Z,98288.23
2022-12-04T03:43:25.617Z,98288.55
2022-12-04T03:46:06.192Z,98290.34
2022-12-04T03:48:50.164Z,98288.45
2022-12-04T03:51:24.455Z,98283.67
2022-12-04T03:54:04.547Z,98281.89
2022-12-04T03:56:42.061Z,98270.02
2022-12-04T03:59:21.484Z,98274.11
2022-12-04T04:01:58.490Z,98272.20
2022-12-04T04:04:37.822Z,98271.85
2022-12-04T04:07:16.371Z,98270.46
2022-12-04T04:09:53.943Z,98268.10
2022-12-04T04:12:34.064Z,98270.98
2022-12-04T04:15:29.531Z,98265.33
2022-12-04T04:18:23.242Z,98268.55
2022-12-04T04:21:19.320Z,98273.30
2022-12-04T04:24:12.181Z,98274.61
2022-12-04T04:26:49.237Z,98279.77
2022-12-04T04:29:23.543Z,98280.75
2022-12-04T04:32:02.125Z,98274.45
2022-12-04T04:34:44.445Z,98277.16
2022-12-04T04:37:27.292Z,98278.69
2022-12-04T04:40:09.253Z,98279.88
2022-12-04T04:42:51.887Z,98281.91
2022-12-04T04:46:04.574Z,98273.03
2022-12-04T04:49:08.206Z,98274.26
2022-12-04T04:52:09.454Z,98274.72
2022-12-04T04:54:49.599Z,98276.78
2022-12-04T04:57:33.251Z,98276.61
2022-12-04T05:00:11.409Z,98280.52
2022-12-04T05:02:49.465Z,98277.82
2022-12-04T05:05:23.865Z,98279.02
2022-12-04T05:07:58.378Z,98277.35
2022-12-04T05:10:31.975Z,98281.42
2022-12-04T05:13:05.996Z,98279.90
2022-12-04T05:15:40.279Z,98277.87
2022-12-04T05:18:15.138Z,98277.86
2022-12-04T05:20:49.009Z,98279.41
2022-12-04T05:23:23.074Z,98282.59
2022-12-04T05:26:03.933Z,98281.24
2022-12-04T05:28:37.805Z,98279.77
2022-12-04T05:31:12.057Z,98276.36
2022-12-04T05:33:45.920Z,98278.71
2022-12-04T05:36:21.465Z,98281.58
2022-12-04T05:38:55.717Z,98271.53
2022-12-04T05:41:30.621Z,98269.54
2022-12-04T05:44:04.704Z,98266.48
2022-12-04T05:46:38.269Z,98263.76
2022-12-04T05:49:12.120Z,98265.30
2022-12-04T05:51:46.129Z,98264.98
2022-12-04T05:54:20.446Z,98267.88
2022-12-04T05:56:54.008Z,98265.66
2022-12-04T05:59:28.402Z,98261.90
2022-12-04T06:02:02.556Z,98264.30
2022-12-04T06:04:36.640Z,98266.14
2022-12-04T06:07:11.492Z,98268.89
2022-12-04T06:09:45.714Z,98273.30
2022-12-04T06:12:19.755Z,98276.33
2022-12-04T06:14:53.746Z,98281.95
2022-12-04T06:17:28.086Z,98282.14
2022-12-04T06:20:05.229Z,98280.98
2022-12-04T06:22:42.100Z,98278.30
2022-12-04T06:25:16.767Z,98277.64
2022-12-04T06:27:51.981Z,98280.87
2022-12-04T06:30:25.940Z,98283.58
2022-12-04T06:33:00.074Z,98280.52
2022-12-04T06:35:34.426Z,98280.86
2022-12-04T06:38:08.745Z,98276.42
2022-12-04T06:40:45.699Z,98278.08
2022-12-04T06:43:20.712Z,98279.96
2022-12-04T06:46:05.467Z,98281.67
2022-12-04T06:48:39.352Z,98283.59
2022-12-04T06:51:16.181Z,98281.59
2022-12-04T06:53:50.637Z,98278.56
2022-12-04T06:56:25.557Z,98283.00
2022-12-04T06:59:01.876Z,98283.38
2022-12-04T07:01:37.272Z,98282.55
2022-12-04T07:04:11.792Z,98273.39
2022-12-04T07:06:46.076Z,98273.17
2022-12-04T07:09:20.447Z,98273.84
2022-12-04T07:11:55.696Z,98273.31
2022-12-04T07:14:29.456Z,98274.89
2022-12-04T07:17:03.947Z,98274.61
2022-12-04T07:19:39.012Z,98269.85
2022-12-04T07:22:12.944Z,98265.23
2022-12-04T07:24:52.893Z,98268.16
2022-12-04T07:27:27.121Z,98268.23
2022-12-04T07:30:01.121Z,98273.13
2022-12-04T07:32:35.225Z,98271.09
2022-12-04T07:35:11.213Z,98269.15
2022-12-04T07:37:45.960Z,98274.69
2022-12-04T07:40:20.212Z,98276.30
2022-12-04T07:42:57.149Z,98278.71
2022-12-04T07:45:31.177Z,98279.27
2022-12-04T07:48:05.087Z,98284.21
2022-12-04T07:50:36.671Z,98289.19
2022-12-04T07:53:10.890Z,98287.17
2022-12-04T07:55:45.121Z,98287.08
2022-12-04T07:58:19.352Z,98288.95
2022-12-04T08:00:53.219Z,98291.73
2022-12-04T08:03:27.522Z,98296.41
2022-12-04T08:06:04.250Z,98293.48
2022-12-04T08:08:39.298Z,98285.33
2022-12-04T08:11:14.950Z,98284.57
2022-12-04T08:13:49.250Z,98277.67
2022-12-04T08:16:23.788Z,98280.61
2022-12-04T08:18:58.921Z,98276.44
2022-12-04T08:21:35.335Z,98272.33
2022-12-04T08:24:11.822Z,98266.64
2022-12-04T08:26:47.032Z,98270.52
2022-12-04T08:29:21.473Z,98273.94
2022-12-04T08:31:55.378Z,98279.89
2022-12-04T08:34:29.706Z,98272.84
2022-12-04T08:37:04.117Z,98276.79
2022-12-04T08:39:38.675Z,98273.24
2022-12-04T08:42:12.711Z,98272.54
2022-12-04T08:44:47.423Z,98268.05
2022-12-04T08:47:24.840Z,98273.64
2022-12-04T08:49:59.500Z,98274.81
2022-12-04T08:52:33.625Z,98272.63
2022-12-04T08:55:08.682Z,98277.40
2022-12-04T08:57:42.198Z,98277.25
2022-12-04T09:00:16.105Z,98281.37
2022-12-04T09:02:55.029Z,98280.97
2022-12-04T09:05:29.405Z,98284.76
2022-12-04T09:08:04.103Z,98285.02
2022-12-04T09:10:40.954Z,98288.98
2022-12-04T09:13:19.135Z,98288.14
2022-12-04T09:15:59.565Z,98282.77
2022-12-04T09:18:36.868Z,98279.88
2022-12-04T09:21:21.244Z,98282.13
2022-12-04T09:23:57.851Z,98283.51
2022-12-04T09:26:36.560Z,98280.00
2022-12-04T09:29:13.232Z,98282.48
2022-12-04T09:31:48.078Z,98284.91
2022-12-04T09:34:22.516Z,98290.13
2022-12-04T09:36:59.625Z,98293.58
2022-12-04T09:39:34.371Z,98290.09
2022-12-04T09:42:32.101Z,98283.62
2022-12-04T09:45:16.787Z,98285.98
2022-12-04T09:47:56.663Z,98279.21
2022-12-04T09:50:38.111Z,98268.04
2022-12-04T09:53:18.615Z,98264.99
2022-12-04T09:56:01.709Z,98256.36
2022-12-04T09:58:43.789Z,98257.55
2022-12-04T10:01:26.391Z,98261.46
2022-12-04T10:04:05.972Z,98261.19
2022-12-04T10:06:50.229Z,98258.30
2022-12-04T10:09:30.047Z,98258.44
2022-12-04T10:12:11.522Z,98252.00
2022-12-04T10:15:11.626Z,98250.38
2022-12-04T10:18:06.108Z,98247.94
2022-12-04T10:20:54.250Z,98252.10
2022-12-04T10:23:38.454Z,98256.20
2022-12-04T10:26:18.160Z,98249.92
2022-12-04T10:28:56.812Z,98246.30
2022-12-04T10:31:31.871Z,98239.48
2022-12-04T10:34:11.050Z,98234.45
2022-12-04T10:36:48.156Z,98229.65
2022-12-04T10:39:28.969Z,98231.94
2022-12-04T10:42:08.760Z,98225.69
2022-12-04T10:44:48.453Z,98222.23
2022-12-04T10:47:24.711Z,98216.94
2022-12-04T10:50:06.837Z,98207.11
2022-12-04T10:52:40.936Z,98198.48
2022-12-04T10:55:15.872Z,98194.72
2022-12-04T10:57:51.180Z,98189.89
2022-12-04T11:00:34.336Z,98187.26
2022-12-04T11:03:24.353Z,98184.13
2022-12-04T11:06:02.500Z,98183.82
2022-12-04T11:08:41.291Z,98179.75
2022-12-04T11:11:17.011Z,98177.45
2022-12-04T11:13:51.695Z,98179.92
2022-12-04T11:16:40.163Z,98176.66
2022-12-04T11:19:29.117Z,98173.80
2022-12-04T11:22:06.735Z,98175.70
2022-12-04T11:24:43.467Z,98181.02
2022-12-04T11:27:26.418Z,98180.85
2022-12-04T11:30:03.422Z,98179.92
2022-12-04T11:32:38.317Z,98178.59
2022-12-04T11:35:23.572Z,98171.42
2022-12-04T11:38:00.526Z,98178.77
2022-12-04T11:40:35.018Z,98181.20
2022-12-04T11:43:15.351Z,98182.75
2022-12-04T11:46:00.456Z,98184.05
2022-12-04T11:48:44.551Z,98185.58
2022-12-04T11:51:32.742Z,98188.10
2022-12-04T11:54:15.257Z,98189.13
2022-12-04T11:56:57.548Z,98189.08
2022-12-04T11:59:58.437Z,98189.48
2022-12-04T12:02:48.924Z,98191.53
2022-12-04T12:05:45.229Z,98189.01
2022-12-04T12:08:32.860Z,98189.40
2022-12-04T12:11:24.166Z,98186.91
2022-12-04T12:14:09.241Z,98182.98
2022-12-04T12:16:58.552Z,98182.69
2022-12-04T12:19:55.643Z,98188.65
2022-12-04T12:22:44.093Z,98189.73
2022-12-04T12:25:24.596Z,98188.84
2022-12-04T12:28:21.083Z,98183.28
2022-12-04T12:31:11.547Z,98186.72
2022-12-04T12:33:54.150Z,98190.33
2022-12-04T12:36:38.755Z,98189.67
2022-12-04T12:39:24.038Z,98190.05
2022-12-04T12:42:04.294Z,98186.32
2022-12-04T12:44:55.482Z,98188.79
2022-12-04T12:47:39.864Z,98184.41
2022-12-04T12:50:24.181Z,98185.44
2022-12-04T12:53:00.778Z,98182.04
2022-12-04T12:55:38.756Z,98183.39
2022-12-04T12:58:26.521Z,98182.41
2022-12-04T13:01:08.986Z,98185.35
2022-12-04T13:03:52.966Z,98189.42
2022-12-04T13:06:28.899Z,98188.02
2022-12-04T13:09:08.998Z,98189.02
2022-12-04T13:11:44.257Z,98185.35
2022-12-04T13:14:18.946Z,98188.96
2022-12-04T13:16:58.264Z,98187.25
2022-12-04T13:19:36.040Z,98181.13
2022-12-04T13:22:21.176Z,98181.13
2022-12-04T13:25:29.012Z,98185.67
2022-12-04T13:28:18.324Z,98177.84
2022-12-04T13:31:03.055Z,98177.64
2022-12-04T13:34:15.832Z,98179.17
2022-12-04T13:37:25.772Z,98187.48
2022-12-04T13:40:37.992Z,98184.46
2022-12-04T13:43:37.486Z,98178.67
2022-12-04T13:46:36.663Z,98176.92
2022-12-04T13:49:30.627Z,98181.63
2022-12-04T13:52:06.266Z,98186.73
2022-12-04T13:54:40.979Z,98192.89
2022-12-04T13:57:26.027Z,98189.64
2022-12-04T14:00:26.708Z,98191.82
2022-12-04T14:03:02.986Z,98190.50
2022-12-04T14:05:45.261Z,98189.64
2022-12-04T14:08:33.002Z,98191.20
2022-12-04T14:11:11.322Z,98190.66
2022-12-04T14:13:51.737Z,98188.62
2022-12-04T14:16:33.631Z,98184.70
2022-12-04T14:19:30.856Z,98184.98
2022-12-04T14:22:05.756Z,98180.65
2022-12-04T14:24:41.816Z,98181.70
2022-12-04T14:27:37.120Z,98176.91
2022-12-04T14:30:23.279Z,98175.55
2022-12-04T14:33:08.150Z,98174.83
2022-12-04T14:35:51.126Z,98170.17
2022-12-04T14:38:26.250Z,98166.80
2022-12-04T14:41:02.500Z,98170.90
2022-12-04T14:43:41.194Z,98168.02
2022-12-04T14:46:26.636Z,98166.66
2022-12-04T14:49:11.268Z,98165.70
2022-12-04T14:51:52.158Z,98170.55
2022-12-04T14:54:34.836Z,98174.48
2022-12-04T14:57:26.361Z,98179.55
2022-12-04T15:00:02.569Z,98180.91
2022-12-04T15:02:42.120Z,98183.12
2022-12-04T15:05:22.594Z,98186.83
2022-12-04T15:07:59.679Z,98187.50
2022-12-04T15:10:55.360Z,98192.42
2022-12-04T15:13:35.758Z,98190.84
2022-12-04T15:16:22.896Z,98194.05
2022-12-04T15:19:02.288Z,98194.77
2022-12-04T15:21:43.022Z,98186.63
2022-12-04T15:24:25.139Z,98192.26
2022-12-04T15:27:00.181Z,98189.95
2022-12-04T15:29:48.781Z,98191.98
2022-12-04T15:32:33.090Z,98191.43
2022-12-04T15:35:15.144Z,98188.39
2022-12-04T15:37:51.167Z,98185.77
2022-12-04T15:40:29.707Z,98185.30
2022-12-04T15:43:28.602Z,98184.46
2022-12-04T15:46:14.628Z,98182.94
2022-12-04T15:48:49.183Z,98185.08
2022-12-04T15:51:25.306Z,98181.17
2022-12-04T15:53:59.490Z,98182.46
2022-12-04T15:56:35.051Z,98185.15
2022-12-04T15:59:09.023Z,98189.29
2022-12-04T16:01:45.054Z,98197.33
2022-12-04T16:04:27.263Z,98196.23
2022-12-04T16:07:01.879Z,98195.56
2022-12-04T16:09:37.789Z,98197.09
2022-12-04T16:12:22.534Z,98197.53
2022-12-04T16:14:58.907Z,98200.21
2022-12-04T16:17:37.178Z,98198.55
2022-12-04T16:20:13.533Z,98196.60
2022-12-04T16:22:47.546Z,98195.45
2022-12-04T16:25:24.638Z,98200.52
2022-12-04T16:27:59.104Z,98200.30
2022-12-04T16:30:38.375Z,98207.27
2022-12-04T16:33:15.199Z,98204.63
2022-12-04T16:35:52.152Z,98217.13
2022-12-04T16:38:27.525Z,98217.48
2022-12-04T16:41:02.060Z,98211.23
2022-12-04T16:43:36.123Z,98208.39
2022-12-04T16:46:14.735Z,98205.32
2022-12-04T16:48:49.904Z,98202.75
2022-12-04T16:51:25.345Z,98204.57
2022-12-04T16:54:00.340Z,98202.34
2022-12-04T16:56:34.897Z,98201.30
2022-12-04T16:59:11.933Z,98198.86
2022-12-04T17:01:51.066Z,98197.29
2022-12-04T17:04:24.832Z,98203.54
2022-12-04T17:06:59.701Z,98200.98
2022-12-04T17:09:33.429Z,98198.55
2022-12-04T17:12:07.953Z,98191.70
2022-12-04T17:14:42.936Z,98189.11
2022-12-04T17:17:23.032Z,98187.92
2022-12-04T17:20:10.881Z,98186.56
2022-12-04T17:23:21.834Z,98194.30
2022-12-04T17:26:11.691Z,98198.52
2022-12-04T17:28:50.049Z,98207.58
2022-12-04T17:31:34.060Z,98207.02
2022-12-04T17:34:12.765Z,98213.86
2022-12-04T17:36:47.089Z,98214.64
2022-12-04T17:39:21.242Z,98214.31
2022-12-04T17:41:56.538Z,98212.12
2022-12-04T17:44:30.823Z,98215.25
2022-12-04T17:47:05.068Z,98207.45
2022-12-04T17:49:39.276Z,98207.98
2022-12-04T17:52:15.627Z,98203.02
2022-12-04T17:54:52.002Z,98210.21
2022-12-04T17:57:27.428Z,98204.56
2022-12-04T18:00:08.588Z,98202.20
2022-12-04T18:03:16.996Z,98206.06
2022-12-04T18:05:55.112Z,98202.95
2022-12-04T18:08:32.225Z,98204.39
2022-12-04T18:11:08.577Z,98198.10
2022-12-04T18:13:42.617Z,98200.05
2022-12-04T18:16:17.383Z,98201.27
2022-12-04T18:18:51.784Z,98201.48
2022-12-04T18:21:26.399Z,98199.26
2022-12-04T18:24:03.400Z,98204.33
2022-12-04T18:26:40.940Z,98198.58
2022-12-04T18:29:18.321Z,98200.05
2022-12-04T18:31:53.131Z,98200.83
2022-12-04T18:34:27.577Z,98196.30
2022-12-04T18:37:04.758Z,98198.90
2022-12-04T18:39:40.160Z,98198.02
2022-12-04T18:42:18.052Z,98198.18
2022-12-04T18:44:52.829Z,98201.50
2022-12-04T18:47:27.610Z,98197.41
2022-12-04T18:50:02.063Z,98200.37
2022-12-04T18:52:39.336Z,98198.17
2022-12-04T18:55:13.998Z,98198.44
2022-12-04T18:57:48.457Z,98194.83
2022-12-04T19:00:26.725Z,98194.35
2022-12-04T19:03:06.217Z,98194.93
2022-12-04T19:05:53.168Z,98195.09
2022-12-04T19:08:38.681Z,98194.06
2022-12-04T19:11:41.624Z,98194.21
2022-12-04T19:14:32.790Z,98197.09
2022-12-04T19:17:12.907Z,98194.79
2022-12-04T19:19:58.454Z,98197.15
2022-12-04T19:22:39.631Z,98202.89
2022-12-04T19:25:22.384Z,98202.76
2022-12-04T19:28:05.759Z,98204.59
2022-12-04T19:30:47.943Z,98203.70
2022-12-04T19:33:26.166Z,98203.40
2022-12-04T19:36:07.030Z,98205.92
2022-12-04T19:38:41.845Z,98204.88
2022-12-04T19:41:18.992Z,98207.48
2022-12-04T19:43:57.635Z,98209.73
2022-12-04T19:46:34.373Z,98209.52
2022-12-04T19:49:09.561Z,98206.64
2022-12-04T19:51:45.078Z,98205.58
2022-12-04T19:54:23.227Z,98201.84
2022-12-04T19:57:00.315Z,98211.85
2022-12-04T19:59:37.710Z,98216.61
2022-12-04T20:02:14.384Z,98212.45
2022-12-04T20:04:49.471Z,98217.38
2022-12-04T20:07:29.872Z,98225.61
2022-12-04T20:10:04.497Z,98227.18
2022-12-04T20:12:38.756Z,98227.44
2022-12-04T20:15:14.088Z,98230.55
2022-12-04T20:17:48.843Z,98229.03
2022-12-04T20:20:24.099Z,98228.48
2022-12-04T20:22:58.715Z,98228.56
2022-12-04T20:25:32.653Z,98224.92
2022-12-04T20:28:11.511Z,98224.93
2022-12-04T20:30:50.661Z,98226.66
2022-12-04T20:33:24.600Z,98223.73
2022-12-04T20:35:56.552Z,98229.46
2022-12-04T20:38:30.927Z,98226.32
2022-12-04T20:41:10.835Z,98224.26
2022-12-04T20:43:49.437Z,98220.61
2022-12-04T20:46:27.113Z,98222.75
2022-12-04T20:49:02.980Z,98222.48
2022-12-04T20:51:39.203Z,98221.46
2022-12-04T20:54:21.282Z,98219.05
2022-12-04T20:56:57.743Z,98217.95
2022-12-04T20:59:34.187Z,98214.43
2022-12-04T21:02:09.785Z,98211.86
2022-12-04T21:04:45.241Z,98209.08
2022-12-04T21:07:21.654Z,98212.21
2022-12-04T21:09:55.939Z,98215.73
2022-12-04T21:12:46.851Z,98208.67
2022-12-04T21:15:38.153Z,98206.27
2022-12-04T21:18:12.378Z,98203.88
2022-12-04T21:20:46.996Z,98204.79
2022-12-04T21:23:21.356Z,98201.99
2022-12-04T21:25:56.847Z,98195.72
2022-12-04T21:28:31.943Z,98193.02
2022-12-04T21:31:07.555Z,98191.25
2022-12-04T21:33:41.162Z,98183.38
2022-12-04T21:36:18.000Z,98182.79
2022-12-04T21:38:53.503Z,98180.50
2022-12-04T21:41:44.362Z,98182.36
2022-12-04T21:44:26.744Z,98181.84
2022-12-04T21:47:05.801Z,98185.23
2022-12-04T21:49:42.210Z,98179.13
2022-12-04T21:52:16.377Z,98180.56
2022-12-04T21:54:53.629Z,98184.80
2022-12-04T21:57:29.586Z,98184.27
2022-12-04T22:00:04.877Z,98180.66
2022-12-04T22:02:40.576Z,98181.88
2022-12-04T22:05:14.511Z,98185.79
2022-12-04T22:07:48.492Z,98192.23
2022-12-04T22:10:24.875Z,98192.54
2022-12-04T22:12:59.529Z,98190.88
2022-12-04T22:15:58.514Z,98194.08
2022-12-04T22:18:34.579Z,98192.57
2022-12-04T22:21:14.298Z,98190.56
2022-12-04T22:23:48.930Z,98193.64
2022-12-04T22:26:23.577Z,98193.48
2022-12-04T22:28:58.280Z,98192.17
2022-12-04T22:31:34.801Z,98184.51
2022-12-04T22:34:09.478Z,98184.17
2022-12-04T22:36:43.887Z,98181.90
2022-12-04T22:39:17.988Z,98180.54
2022-12-04T22:41:51.882Z,98178.20
2022-12-04T22:44:26.359Z,98174.11
2022-12-04T22:47:00.112Z,98171.73
2022-12-04T22:49:35.952Z,98170.23
2022-12-04T22:52:09.741Z,98171.09
2022-12-04T22:54:44.073Z,98174.04
2022-12-04T22:57:18.347Z,98173.66
2022-12-04T22:59:53.656Z,98171.95
2022-12-04T23:02:29.702Z,98169.75
2022-12-04T23:05:04.313Z,98164.34
2022-12-04T23:07:38.250Z,98165.20
2022-12-04T23:10:13.105Z,98170.52
2022-12-04T23:12:47.324Z,98174.23
2022-12-04T23:15:22.277Z,98180.39
2022-12-04T23:17:56.277Z,98187.23
2022-12-04T23:20:30.438Z,98191.46
2022-12-04T23:23:04.448Z,98194.15
2022-12-04T23:25:43.405Z,98186.99
2022-12-04T23:28:17.834Z,98175.40
2022-12-04T23:30:51.853Z,98167.52
2022-12-04T23:33:26.020Z,98170.42
2022-12-04T23:36:01.531Z,98171.58
2022-12-04T23:38:37.393Z,98167.30
2022-12-04T23:41:13.684Z,98171.30
2022-12-04T23:43:49.012Z,98166.15
2022-12-04T23:46:30.250Z,98165.17
2022-12-04T23:49:04.820Z,98161.31
2022-12-04T23:51:39.097Z,98155.52
2022-12-04T23:54:12.775Z,98157.31
2022-12-04T23:56:47.412Z,98157.73
2022-12-04T23:59:22.518Z,98151.80
